Time;durP1;ratioP1;P1;durP2;ratioP2;P2;SDS_P1;SDS_P2;PMS_P1;PMS_P2;Temp;Humidity;BMP_temperature;BMP_pressure;BME280_temperature;BME280_humidity;BME280_pressure;Samples;Min_cycle;Max_cycle;Signal;HPM_P1;HPM_P2
2023/09/18 00:01:19;;;;;;;14.10;12.80;;;;;;;;;;5010242;28;20473;-80
2023/09/18 00:03:46;;;;;;;15.53;12.27;;;;;;;;;;5014587;28;20480;-80
2023/09/18 00:06:12;;;;;;;13.20;11.90;;;;;;;;;;5028634;28;20470;-80
2023/09/18 00:08:39;;;;;;;13.00;11.80;;;;;;;;;;5022555;28;21139;-79
2023/09/18 00:11:07;;;;;;;13.30;12.10;;;;;;;;;;5023076;28;20835;-79
2023/09/18 00:13:33;;;;;;;15.23;13.63;;;;;;;;;;5007698;28;20498;-82
2023/09/18 00:16:01;;;;;;;13.57;12.37;;;;;;;;;;5013523;28;21009;-78
2023/09/18 00:18:28;;;;;;;19.23;14.53;;;;;;;;;;5012993;28;20490;-79
2023/09/18 00:20:55;;;;;;;14.27;13.00;;;;;;;;;;5002317;28;20843;-80
2023/09/18 00:23:21;;;;;;;16.53;14.93;;;;;;;;;;5015226;28;20937;-78
2023/09/18 00:25:48;;;;;;;16.07;14.57;;;;;;;;;;5013906;28;20473;-78
2023/09/18 00:28:14;;;;;;;13.57;12.30;;;;;;;;;;5009505;28;20477;-79
2023/09/18 00:30:44;;;;;;;14.43;13.03;;;;;;;;;;4997485;28;20461;-78
2023/09/18 00:33:12;;;;;;;15.60;14.00;;;;;;;;;;5004789;28;20468;-79
2023/09/18 00:35:40;;;;;;;16.07;13.60;;;;;;;;;;5019472;28;20491;-81
2023/09/18 00:38:07;;;;;;;16.10;14.53;;;;;;;;;;5022827;28;20487;-80
2023/09/18 00:40:33;;;;;;;15.93;14.47;;;;;;;;;;5008292;28;20474;-79
2023/09/18 00:43:00;;;;;;;16.27;14.67;;;;;;;;;;5001021;28;20847;-79
2023/09/18 00:45:28;;;;;;;20.33;15.30;;;;;;;;;;5010757;28;20474;-80
2023/09/18 00:47:55;;;;;;;17.03;15.43;;;;;;;;;;5018268;28;20480;-78
2023/09/18 00:50:21;;;;;;;16.57;14.97;;;;;;;;;;5012546;28;20480;-79
2023/09/18 00:52:50;;;;;;;20.20;15.27;;;;;;;;;;5006711;28;20485;-80
2023/09/18 00:55:17;;;;;;;14.20;12.90;;;;;;;;;;4989862;28;20514;-78
2023/09/18 00:57:44;;;;;;;14.70;13.20;;;;;;;;;;5009606;28;20477;-81
2023/09/18 01:00:15;;;;;;;15.77;14.17;;;;;;;;;;5001973;28;20849;-82
2023/09/18 01:02:41;;;;;;;15.67;14.27;;;;;;;;;;5016252;28;20563;-80
2023/09/18 01:05:08;;;;;;;15.27;13.73;;;;;;;;;;5012672;28;22266;-80
2023/09/18 01:07:34;;;;;;;16.60;15.00;;;;;;;;;;5013560;28;20470;-81
2023/09/18 01:10:03;;;;;;;17.43;14.87;;;;;;;;;;5018727;28;20474;-82
2023/09/18 01:12:33;;;;;;;15.90;14.20;;;;;;;;;;5021797;28;20469;-78
2023/09/18 01:15:03;;;;;;;15.90;14.20;;;;;;;;;;4995584;28;20485;-79
2023/09/18 01:17:30;;;;;;;17.23;14.20;;;;;;;;;;5003436;28;20474;-78
2023/09/18 01:19:57;;;;;;;14.87;13.23;;;;;;;;;;5017443;28;20490;-80
2023/09/18 01:22:23;;;;;;;15.97;14.37;;;;;;;;;;5014482;28;20478;-81
2023/09/18 01:24:51;;;;;;;15.40;14.00;;;;;;;;;;5016991;28;20474;-81
2023/09/18 01:27:18;;;;;;;16.07;14.57;;;;;;;;;;5014194;28;20488;-81
2023/09/18 01:29:45;;;;;;;16.97;14.53;;;;;;;;;;5022678;28;20490;-80
2023/09/18 01:32:11;;;;;;;14.07;12.67;;;;;;;;;;5027543;28;20848;-83
2023/09/18 01:34:40;;;;;;;16.87;14.87;;;;;;;;;;4999149;28;20486;-81
2023/09/18 01:37:08;;;;;;;15.83;14.43;;;;;;;;;;4984437;28;20480;-80
2023/09/18 01:39:35;;;;;;;18.07;14.43;;;;;;;;;;5006977;28;20515;-79
2023/09/18 01:42:05;;;;;;;15.40;13.83;;;;;;;;;;5007104;28;20474;-80
2023/09/18 01:44:31;;;;;;;15.50;13.90;;;;;;;;;;4988027;28;20516;-79
2023/09/18 01:46:59;;;;;;;15.80;14.30;;;;;;;;;;5011646;28;20466;-81
2023/09/18 01:49:28;;;;;;;19.50;13.67;;;;;;;;;;5010257;28;20477;-82
2023/09/18 01:51:55;;;;;;;14.50;13.20;;;;;;;;;;5004233;28;20461;-81
2023/09/18 01:54:21;;;;;;;17.23;14.63;;;;;;;;;;4994104;28;20895;-80
2023/09/18 01:56:47;;;;;;;19.00;13.50;;;;;;;;;;5022570;28;20468;-80
2023/09/18 01:59:15;;;;;;;15.33;13.60;;;;;;;;;;5009465;28;21031;-79
2023/09/18 02:01:42;;;;;;;14.90;13.27;;;;;;;;;;5014195;28;20466;-80
2023/09/18 02:04:08;;;;;;;24.60;15.23;;;;;;;;;;5029134;28;20494;-79
2023/09/18 02:06:35;;;;;;;18.60;14.47;;;;;;;;;;5016213;28;20477;-80
2023/09/18 02:09:01;;;;;;;16.30;14.70;;;;;;;;;;5010270;28;20486;-80
2023/09/18 02:11:28;;;;;;;15.77;14.20;;;;;;;;;;5010444;28;20485;-80
2023/09/18 02:13:54;;;;;;;17.00;15.27;;;;;;;;;;5001169;28;20494;-81
2023/09/18 02:16:23;;;;;;;15.47;14.07;;;;;;;;;;5015289;28;20469;-79
2023/09/18 02:18:50;;;;;;;16.90;13.80;;;;;;;;;;5006220;28;20489;-80
2023/09/18 02:21:19;;;;;;;18.77;14.90;;;;;;;;;;5017697;28;20477;-80
2023/09/18 02:23:49;;;;;;;16.40;14.60;;;;;;;;;;5011000;28;20531;-80
2023/09/18 02:26:16;;;;;;;15.30;13.80;;;;;;;;;;5023463;28;20503;-80
2023/09/18 02:28:43;;;;;;;14.60;13.17;;;;;;;;;;5010182;28;20471;-79
2023/09/18 02:31:10;;;;;;;15.97;14.00;;;;;;;;;;5013310;28;21396;-79
2023/09/18 02:33:38;;;;;;;13.87;12.60;;;;;;;;;;5006313;28;20480;-80
2023/09/18 02:36:04;;;;;;;15.50;13.63;;;;;;;;;;5009099;28;20479;-81
2023/09/18 02:38:31;;;;;;;14.90;13.40;;;;;;;;;;4998701;28;20489;-81
2023/09/18 02:40:57;;;;;;;16.40;14.77;;;;;;;;;;5016427;28;20545;-80
2023/09/18 02:43:24;;;;;;;14.40;13.00;;;;;;;;;;5016992;28;20463;-80
2023/09/18 02:45:52;;;;;;;14.37;12.97;;;;;;;;;;5010056;28;20476;-79
2023/09/18 02:48:19;;;;;;;15.07;13.47;;;;;;;;;;5016621;28;20477;-80
2023/09/18 02:50:54;;;;;;;22.87;14.10;;;;;;;;;;5018247;28;20474;-82
2023/09/18 02:53:21;;;;;;;15.87;13.83;;;;;;;;;;5021484;28;20492;-79
2023/09/18 02:55:50;;;;;;;14.87;13.47;;;;;;;;;;5017810;28;20480;-79
2023/09/18 02:58:18;;;;;;;15.70;12.83;;;;;;;;;;5017964;28;20506;-79
2023/09/18 03:00:45;;;;;;;14.73;13.30;;;;;;;;;;5021103;28;21033;-81
2023/09/18 03:03:12;;;;;;;18.03;13.57;;;;;;;;;;5013626;28;21054;-79
2023/09/18 03:05:39;;;;;;;15.47;13.97;;;;;;;;;;5006734;28;20476;-81
2023/09/18 03:08:08;;;;;;;15.63;13.97;;;;;;;;;;5025616;28;20865;-80
2023/09/18 03:10:35;;;;;;;14.03;12.63;;;;;;;;;;5014975;28;20522;-80
2023/09/18 03:13:01;;;;;;;14.27;12.77;;;;;;;;;;5017763;28;20483;-79
2023/09/18 03:15:27;;;;;;;14.40;12.97;;;;;;;;;;5010045;28;20485;-80
2023/09/18 03:17:54;;;;;;;14.07;12.80;;;;;;;;;;5014437;28;20492;-82
2023/09/18 03:20:23;;;;;;;17.27;13.53;;;;;;;;;;4990204;28;20562;-81
2023/09/18 03:22:49;;;;;;;13.83;12.53;;;;;;;;;;5005666;28;20487;-80
2023/09/18 03:25:17;;;;;;;15.20;13.70;;;;;;;;;;5000134;28;20489;-78
2023/09/18 03:27:43;;;;;;;14.63;13.33;;;;;;;;;;5014747;28;20480;-80
2023/09/18 03:30:12;;;;;;;15.87;13.30;;;;;;;;;;4975268;28;20483;-80
2023/09/18 03:32:38;;;;;;;16.40;14.67;;;;;;;;;;5002939;28;20506;-82
2023/09/18 03:35:05;;;;;;;13.93;12.40;;;;;;;;;;5009780;28;20522;-80
2023/09/18 03:37:32;;;;;;;14.47;12.97;;;;;;;;;;5015004;28;20478;-79
2023/09/18 03:39:58;;;;;;;13.83;12.53;;;;;;;;;;5007612;28;20496;-80
2023/09/18 03:42:26;;;;;;;16.07;14.53;;;;;;;;;;5004963;28;20477;-79
2023/09/18 03:44:53;;;;;;;14.00;12.50;;;;;;;;;;4997417;28;20494;-80
2023/09/18 03:47:19;;;;;;;14.40;12.90;;;;;;;;;;5008850;28;20918;-80
2023/09/18 03:49:45;;;;;;;15.03;13.60;;;;;;;;;;5001473;28;20471;-80
2023/09/18 03:52:12;;;;;;;18.73;13.43;;;;;;;;;;4990146;28;20529;-80
2023/09/18 03:54:38;;;;;;;22.03;13.60;;;;;;;;;;5007324;28;20560;-80
2023/09/18 03:57:04;;;;;;;16.17;12.53;;;;;;;;;;5008853;28;20484;-78
2023/09/18 03:59:32;;;;;;;15.80;12.57;;;;;;;;;;5015394;28;20519;-80
2023/09/18 04:01:59;;;;;;;12.90;11.00;;;;;;;;;;5015404;28;20471;-79
2023/09/18 04:04:25;;;;;;;15.93;12.10;;;;;;;;;;5003369;28;20488;-80
2023/09/18 04:06:51;;;;;;;12.63;11.40;;;;;;;;;;5007182;28;20841;-81
2023/09/18 04:09:18;;;;;;;13.57;12.10;;;;;;;;;;5012073;28;21053;-79
2023/09/18 04:11:46;;;;;;;13.60;12.20;;;;;;;;;;5008244;28;20819;-79
2023/09/18 04:14:13;;;;;;;14.67;13.20;;;;;;;;;;5019032;28;20456;-82
2023/09/18 04:16:42;;;;;;;16.30;12.40;;;;;;;;;;5020774;28;20469;-80
2023/09/18 04:19:09;;;;;;;13.40;12.20;;;;;;;;;;5007877;28;20568;-80
2023/09/18 04:21:37;;;;;;;13.97;12.67;;;;;;;;;;5010589;28;20497;-80
2023/09/18 04:24:04;;;;;;;15.60;13.00;;;;;;;;;;5012892;28;20489;-80
2023/09/18 04:26:30;;;;;;;13.40;12.00;;;;;;;;;;5008650;28;20461;-81
2023/09/18 04:28:57;;;;;;;12.27;11.17;;;;;;;;;;5017430;28;20488;-80
2023/09/18 04:31:23;;;;;;;13.33;11.57;;;;;;;;;;5014794;28;21026;-78
2023/09/18 04:33:51;;;;;;;13.30;12.00;;;;;;;;;;5009458;28;20561;-79
2023/09/18 04:36:18;;;;;;;14.00;12.70;;;;;;;;;;5019666;28;20493;-82
2023/09/18 04:38:44;;;;;;;13.27;12.07;;;;;;;;;;4997590;28;20477;-79
2023/09/18 04:41:11;;;;;;;20.57;13.33;;;;;;;;;;5003618;28;20522;-79
2023/09/18 04:43:38;;;;;;;13.07;11.67;;;;;;;;;;5020975;28;20551;-80
2023/09/18 04:46:05;;;;;;;13.57;12.00;;;;;;;;;;5009669;28;20478;-81
2023/09/18 04:48:31;;;;;;;13.03;11.73;;;;;;;;;;5011005;28;20579;-78
2023/09/18 04:51:01;;;;;;;13.33;11.97;;;;;;;;;;5010702;28;20843;-83
2023/09/18 04:53:28;;;;;;;13.40;12.07;;;;;;;;;;5010082;28;20487;-80
2023/09/18 04:55:55;;;;;;;13.50;12.20;;;;;;;;;;5010975;28;21025;-80
2023/09/18 04:58:21;;;;;;;12.67;11.37;;;;;;;;;;5021681;28;20995;-80
2023/09/18 05:00:48;;;;;;;14.03;12.00;;;;;;;;;;5010587;28;20603;-80
2023/09/18 05:03:16;;;;;;;12.80;11.30;;;;;;;;;;5022550;28;20483;-81
2023/09/18 05:05:44;;;;;;;16.93;11.90;;;;;;;;;;5010930;28;20466;-79
2023/09/18 05:08:14;;;;;;;11.97;10.87;;;;;;;;;;5003344;28;20482;-79
2023/09/18 05:10:40;;;;;;;13.77;12.47;;;;;;;;;;5007354;28;20516;-80
2023/09/18 05:13:07;;;;;;;12.07;10.97;;;;;;;;;;4997504;28;20478;-80
2023/09/18 05:15:34;;;;;;;14.00;11.57;;;;;;;;;;5003747;28;20487;-79
2023/09/18 05:18:01;;;;;;;12.50;11.40;;;;;;;;;;4997926;28;20466;-78
2023/09/18 05:20:29;;;;;;;13.70;12.30;;;;;;;;;;5009183;28;20855;-79
2023/09/18 05:22:56;;;;;;;13.20;11.67;;;;;;;;;;5000595;28;20487;-80
2023/09/18 05:25:24;;;;;;;15.80;11.30;;;;;;;;;;5009391;28;20523;-80
2023/09/18 05:27:55;;;;;;;13.53;11.67;;;;;;;;;;5006224;28;20494;-80
2023/09/18 05:30:27;;;;;;;14.10;11.57;;;;;;;;;;5004958;28;20579;-80
2023/09/18 05:32:54;;;;;;;11.63;10.03;;;;;;;;;;4969845;28;20493;-80
2023/09/18 05:35:21;;;;;;;12.13;10.90;;;;;;;;;;5014518;28;20480;-82
2023/09/18 05:37:47;;;;;;;12.57;11.23;;;;;;;;;;5007436;28;20480;-81
2023/09/18 05:40:15;;;;;;;16.93;12.30;;;;;;;;;;5025710;28;20492;-80
2023/09/18 05:42:44;;;;;;;11.80;10.57;;;;;;;;;;4998796;28;20474;-82
2023/09/18 05:45:10;;;;;;;12.93;11.67;;;;;;;;;;4999173;28;20565;-81
2023/09/18 05:47:38;;;;;;;15.40;12.33;;;;;;;;;;5014112;28;20488;-79
2023/09/18 05:50:05;;;;;;;12.50;9.70;;;;;;;;;;5018336;28;21082;-80
2023/09/18 05:52:31;;;;;;;12.57;11.30;;;;;;;;;;5018514;28;20501;-80
2023/09/18 05:54:58;;;;;;;13.43;11.40;;;;;;;;;;5009613;28;20473;-81
2023/09/18 05:57:24;;;;;;;17.43;11.20;;;;;;;;;;5010188;28;20470;-80
2023/09/18 05:59:52;;;;;;;11.50;10.30;;;;;;;;;;5020877;28;20838;-81
2023/09/18 06:02:20;;;;;;;12.30;10.70;;;;;;;;;;5012742;28;20841;-80
2023/09/18 06:04:47;;;;;;;13.87;11.63;;;;;;;;;;5005218;28;20494;-80
2023/09/18 06:07:13;;;;;;;12.13;10.90;;;;;;;;;;5023484;28;20526;-79
2023/09/18 06:09:40;;;;;;;14.53;10.30;;;;;;;;;;5011315;28;20539;-81
2023/09/18 06:12:09;;;;;;;11.60;10.50;;;;;;;;;;4992753;28;20551;-79
2023/09/18 06:14:37;;;;;;;12.23;10.47;;;;;;;;;;5014523;28;20486;-79
2023/09/18 06:17:06;;;;;;;12.13;10.43;;;;;;;;;;5011877;28;20469;-80
2023/09/18 06:19:35;;;;;;;10.30;9.30;;;;;;;;;;5009544;28;21010;-80
2023/09/18 06:22:01;;;;;;;11.30;10.20;;;;;;;;;;4982685;28;20476;-79
2023/09/18 06:24:28;;;;;;;12.97;11.70;;;;;;;;;;5004644;28;20459;-80
2023/09/18 06:26:54;;;;;;;11.43;10.27;;;;;;;;;;5017847;28;20822;-80
2023/09/18 06:29:20;;;;;;;12.97;10.53;;;;;;;;;;5008420;28;20493;-80
2023/09/18 06:31:47;;;;;;;11.87;10.73;;;;;;;;;;5003960;28;20858;-79
2023/09/18 06:34:14;;;;;;;12.07;10.77;;;;;;;;;;5015232;28;20484;-81
2023/09/18 06:36:41;;;;;;;14.63;10.90;;;;;;;;;;5005419;28;20484;-80
2023/09/18 06:39:08;;;;;;;11.70;10.60;;;;;;;;;;5010087;28;20485;-80
2023/09/18 06:41:34;;;;;;;12.73;10.60;;;;;;;;;;4998171;28;20818;-79
2023/09/18 06:44:03;;;;;;;12.50;10.10;;;;;;;;;;5015119;28;20487;-80
2023/09/18 06:46:30;;;;;;;11.63;10.40;;;;;;;;;;5013739;28;20561;-82
2023/09/18 06:48:57;;;;;;;12.97;11.53;;;;;;;;;;5016421;28;20487;-80
2023/09/18 06:51:25;;;;;;;14.90;10.20;;;;;;;;;;5014980;28;20858;-81
2023/09/18 06:53:51;;;;;;;17.33;10.30;;;;;;;;;;4993009;28;20481;-80
2023/09/18 06:56:18;;;;;;;13.73;10.00;;;;;;;;;;5013964;28;20477;-82
2023/09/18 06:58:44;;;;;;;14.53;10.43;;;;;;;;;;5013903;28;20476;-81
2023/09/18 07:01:11;;;;;;;10.60;9.60;;;;;;;;;;5011368;28;20477;-81
2023/09/18 07:03:40;;;;;;;11.00;9.87;;;;;;;;;;5011109;28;20493;-80
2023/09/18 07:06:06;;;;;;;10.40;9.50;;;;;;;;;;5013360;28;20464;-80
2023/09/18 07:08:34;;;;;;;11.43;9.57;;;;;;;;;;4983815;28;20471;-80
2023/09/18 07:11:00;;;;;;;14.70;10.20;;;;;;;;;;5008167;28;20759;-79
2023/09/18 07:13:27;;;;;;;11.20;10.13;;;;;;;;;;5017135;28;20475;-81
2023/09/18 07:15:53;;;;;;;15.90;11.73;;;;;;;;;;5025732;28;20480;-79
2023/09/18 07:18:21;;;;;;;13.20;10.30;;;;;;;;;;5020684;28;20974;-81
2023/09/18 07:20:47;;;;;;;11.47;10.13;;;;;;;;;;5005422;28;20472;-80
2023/09/18 07:23:14;;;;;;;11.20;10.07;;;;;;;;;;5006495;28;20987;-80
2023/09/18 07:25:43;;;;;;;11.93;10.83;;;;;;;;;;5017071;28;20500;-81
2023/09/18 07:28:15;;;;;;;12.73;10.57;;;;;;;;;;4999941;28;20469;-80
2023/09/18 07:30:41;;;;;;;13.00;10.50;;;;;;;;;;5017743;28;20456;-80
2023/09/18 07:33:08;;;;;;;13.20;11.10;;;;;;;;;;5010658;28;20477;-80
2023/09/18 07:35:34;;;;;;;12.70;11.23;;;;;;;;;;5018417;28;20472;-80
2023/09/18 07:38:01;;;;;;;11.73;10.53;;;;;;;;;;5000596;28;20839;-80
2023/09/18 07:40:27;;;;;;;13.67;10.70;;;;;;;;;;5009034;28;20488;-80
2023/09/18 07:42:55;;;;;;;13.63;10.43;;;;;;;;;;5017835;28;20469;-79
2023/09/18 07:45:21;;;;;;;12.40;10.50;;;;;;;;;;5016508;28;20496;-80
2023/09/18 07:47:48;;;;;;;14.53;11.67;;;;;;;;;;5003058;28;20479;-79
2023/09/18 07:50:15;;;;;;;12.90;10.43;;;;;;;;;;4998851;28;20477;-79
2023/09/18 07:52:41;;;;;;;12.20;11.00;;;;;;;;;;5006248;28;20474;-79
2023/09/18 07:55:08;;;;;;;12.50;10.43;;;;;;;;;;5006206;28;20470;-80
2023/09/18 07:57:35;;;;;;;12.90;10.50;;;;;;;;;;5010907;28;20461;-80
2023/09/18 08:00:07;;;;;;;11.60;9.63;;;;;;;;;;4983547;28;20631;-80
2023/09/18 08:02:34;;;;;;;12.30;11.00;;;;;;;;;;4984741;28;20523;-79
2023/09/18 08:05:01;;;;;;;11.23;9.57;;;;;;;;;;5019608;28;20519;-80
2023/09/18 08:07:28;;;;;;;12.27;10.97;;;;;;;;;;4991583;28;20523;-81
2023/09/18 08:09:54;;;;;;;11.80;10.70;;;;;;;;;;4989432;28;20540;-79
2023/09/18 08:12:22;;;;;;;13.50;11.63;;;;;;;;;;5010359;28;20468;-80
2023/09/18 08:14:50;;;;;;;12.60;11.40;;;;;;;;;;4993655;28;20484;-79
2023/09/18 08:17:17;;;;;;;13.47;10.50;;;;;;;;;;5011496;28;20486;-80
2023/09/18 08:19:44;;;;;;;10.73;9.63;;;;;;;;;;4975100;28;20476;-80
2023/09/18 08:22:15;;;;;;;11.17;9.50;;;;;;;;;;5018947;28;20528;-80
2023/09/18 08:24:41;;;;;;;11.40;9.93;;;;;;;;;;5016158;28;20494;-82
2023/09/18 08:27:08;;;;;;;10.63;9.73;;;;;;;;;;5012316;28;20830;-79
2023/09/18 08:29:34;;;;;;;11.87;9.30;;;;;;;;;;5014651;28;20466;-79
2023/09/18 08:32:00;;;;;;;10.73;9.63;;;;;;;;;;5019299;28;20473;-80
2023/09/18 08:34:28;;;;;;;17.73;10.87;;;;;;;;;;5017475;28;20992;-80
2023/09/18 08:36:55;;;;;;;12.50;9.57;;;;;;;;;;5016818;28;21053;-80
2023/09/18 08:39:21;;;;;;;12.10;9.20;;;;;;;;;;5006651;28;20467;-80
2023/09/18 08:41:50;;;;;;;10.67;8.87;;;;;;;;;;5021490;28;20487;-80
2023/09/18 08:44:16;;;;;;;12.60;9.90;;;;;;;;;;5012015;28;20488;-80
2023/09/18 08:46:43;;;;;;;12.37;8.57;;;;;;;;;;5018124;28;20469;-81
2023/09/18 08:49:12;;;;;;;15.67;8.50;;;;;;;;;;4997483;28;20470;-81
2023/09/18 08:51:40;;;;;;;10.33;8.07;;;;;;;;;;5012450;28;20523;-79
2023/09/18 08:54:06;;;;;;;9.80;8.53;;;;;;;;;;5005676;28;21002;-80
2023/09/18 08:56:34;;;;;;;10.37;9.17;;;;;;;;;;5020334;28;21014;-81
2023/09/18 08:59:01;;;;;;;14.07;8.60;;;;;;;;;;5011834;28;20489;-80
2023/09/18 09:01:27;;;;;;;11.87;8.50;;;;;;;;;;4990980;28;20477;-79
2023/09/18 09:03:53;;;;;;;10.40;8.40;;;;;;;;;;4984206;28;20477;-81
2023/09/18 09:06:21;;;;;;;8.30;7.43;;;;;;;;;;5016607;28;21017;-80
2023/09/18 09:08:50;;;;;;;11.63;8.70;;;;;;;;;;5021231;28;20471;-80
2023/09/18 09:11:17;;;;;;;8.93;7.50;;;;;;;;;;5010512;28;20468;-80
2023/09/18 09:13:44;;;;;;;9.00;8.10;;;;;;;;;;5004044;28;20474;-79
2023/09/18 09:16:12;;;;;;;13.83;7.17;;;;;;;;;;4999767;28;20482;-80
2023/09/18 09:18:47;;;;;;;11.83;7.27;;;;;;;;;;5011629;28;20494;-81
2023/09/18 09:21:14;;;;;;;8.80;6.90;;;;;;;;;;5004590;28;20473;-80
2023/09/18 09:23:48;;;;;;;13.90;8.07;;;;;;;;;;5019894;28;20467;-79
2023/09/18 09:26:17;;;;;;;11.60;7.03;;;;;;;;;;5025322;28;20542;-79
2023/09/18 09:28:45;;;;;;;10.30;6.60;;;;;;;;;;5006110;28;20475;-81
2023/09/18 09:31:11;;;;;;;8.00;7.10;;;;;;;;;;5006282;28;20462;-79
2023/09/18 09:33:40;;;;;;;8.17;6.57;;;;;;;;;;5013571;28;20515;-81
2023/09/18 09:36:07;;;;;;;9.97;7.20;;;;;;;;;;4991972;28;20552;-80
2023/09/18 09:38:34;;;;;;;8.90;7.07;;;;;;;;;;5010406;28;20484;-80
2023/09/18 09:41:01;;;;;;;9.40;7.17;;;;;;;;;;5003382;28;20476;-80
2023/09/18 09:43:31;;;;;;;10.60;6.73;;;;;;;;;;5006237;28;20848;-80
2023/09/18 09:45:59;;;;;;;9.87;6.10;;;;;;;;;;5001282;28;21021;-80
2023/09/18 09:48:27;;;;;;;8.73;6.37;;;;;;;;;;4987897;28;21003;-80
2023/09/18 09:50:55;;;;;;;13.47;6.70;;;;;;;;;;5006109;28;20490;-80
2023/09/18 09:53:42;;;;;;;9.87;6.07;;;;;;;;;;5005699;28;20468;-80
2023/09/18 09:56:08;;;;;;;8.63;6.37;;;;;;;;;;5014940;28;20470;-80
2023/09/18 09:58:37;;;;;;;17.10;6.20;;;;;;;;;;4999580;28;20509;-80
2023/09/18 10:01:05;;;;;;;7.40;5.73;;;;;;;;;;5013229;28;20999;-79
2023/09/18 10:03:32;;;;;;;16.50;6.57;;;;;;;;;;4993156;28;20541;-80
2023/09/18 10:05:59;;;;;;;7.93;6.20;;;;;;;;;;4996783;28;21028;-81
2023/09/18 10:08:26;;;;;;;15.87;6.67;;;;;;;;;;5004247;28;20478;-81
2023/09/18 10:10:55;;;;;;;12.87;6.10;;;;;;;;;;5009467;28;20474;-81
2023/09/18 10:13:25;;;;;;;9.50;6.60;;;;;;;;;;4997811;28;20482;-78
2023/09/18 10:15:53;;;;;;;9.30;5.97;;;;;;;;;;5002594;28;21003;-80
2023/09/18 10:18:26;;;;;;;12.90;6.13;;;;;;;;;;5002975;28;20484;-80
2023/09/18 10:20:57;;;;;;;13.20;6.73;;;;;;;;;;5013440;28;20551;-79
2023/09/18 10:23:33;;;;;;;8.17;6.20;;;;;;;;;;5011190;28;20529;-78
2023/09/18 10:26:03;;;;;;;9.27;6.50;;;;;;;;;;5014640;28;20463;-80
2023/09/18 10:28:30;;;;;;;11.23;6.70;;;;;;;;;;5011503;28;20491;-80
2023/09/18 10:30:59;;;;;;;16.20;6.40;;;;;;;;;;5002202;28;20527;-80
2023/09/18 10:33:26;;;;;;;8.70;6.73;;;;;;;;;;5020952;28;20524;-81
2023/09/18 10:35:53;;;;;;;10.30;6.80;;;;;;;;;;5016272;28;20463;-80
2023/09/18 10:38:20;;;;;;;6.13;5.13;;;;;;;;;;5014866;28;20469;-81
2023/09/18 10:40:48;;;;;;;9.30;6.57;;;;;;;;;;5008768;28;20466;-79
2023/09/18 10:43:16;;;;;;;9.90;6.47;;;;;;;;;;5005763;28;20482;-79
2023/09/18 10:45:44;;;;;;;13.97;6.93;;;;;;;;;;5004797;28;20489;-80
2023/09/18 10:48:13;;;;;;;10.53;5.97;;;;;;;;;;5022811;28;20484;-80
2023/09/18 10:50:40;;;;;;;14.67;6.13;;;;;;;;;;5007446;28;20868;-80
2023/09/18 10:53:07;;;;;;;11.23;6.20;;;;;;;;;;5017211;28;20479;-79
2023/09/18 10:55:34;;;;;;;8.40;6.00;;;;;;;;;;5004241;28;20490;-79
2023/09/18 10:58:00;;;;;;;11.63;5.90;;;;;;;;;;5011717;28;20471;-80
2023/09/18 11:00:27;;;;;;;8.70;6.27;;;;;;;;;;4978776;28;20564;-80
2023/09/18 11:02:55;;;;;;;10.30;6.17;;;;;;;;;;5010484;28;20472;-81
2023/09/18 11:05:31;;;;;;;7.50;6.23;;;;;;;;;;5023720;28;20474;-80
2023/09/18 11:08:18;;;;;;;10.80;5.53;;;;;;;;;;5007754;28;20484;-80
2023/09/18 11:10:56;;;;;;;8.60;5.20;;;;;;;;;;5010928;28;20482;-80
2023/09/18 11:13:28;;;;;;;6.73;5.40;;;;;;;;;;5009102;28;20489;-79
2023/09/18 11:16:00;;;;;;;6.80;5.30;;;;;;;;;;5002140;28;20938;-80
2023/09/18 11:18:32;;;;;;;9.27;5.47;;;;;;;;;;5010754;28;20492;-79
2023/09/18 11:21:10;;;;;;;6.20;5.10;;;;;;;;;;5014192;28;20489;-79
2023/09/18 11:23:38;;;;;;;7.30;5.80;;;;;;;;;;5010447;28;20485;-81
2023/09/18 11:26:06;;;;;;;13.43;6.20;;;;;;;;;;5016496;28;20477;-78
2023/09/18 11:28:32;;;;;;;6.13;5.07;;;;;;;;;;5009202;28;20841;-79
2023/09/18 11:31:00;;;;;;;11.40;5.67;;;;;;;;;;5025057;28;20473;-79
2023/09/18 11:33:33;;;;;;;11.03;6.00;;;;;;;;;;5009479;28;20471;-78
2023/09/18 11:36:05;;;;;;;7.50;5.80;;;;;;;;;;5011858;28;20977;-79
2023/09/18 11:38:35;;;;;;;6.03;5.10;;;;;;;;;;5002173;28;20567;-80
2023/09/18 11:41:03;;;;;;;7.70;4.80;;;;;;;;;;4994334;28;20531;-80
2023/09/18 11:43:31;;;;;;;7.50;4.80;;;;;;;;;;5003024;28;20488;-80
2023/09/18 11:46:02;;;;;;;11.70;5.10;;;;;;;;;;5009367;28;20559;-78
2023/09/18 11:48:29;;;;;;;7.93;5.07;;;;;;;;;;5011756;28;20479;-78
2023/09/18 11:50:56;;;;;;;5.50;5.00;;;;;;;;;;5026541;28;20512;-80
2023/09/18 11:53:24;;;;;;;6.37;4.67;;;;;;;;;;5018027;28;20462;-79
2023/09/18 11:55:52;;;;;;;9.93;5.60;;;;;;;;;;5023521;28;20491;-80
2023/09/18 11:58:22;;;;;;;8.33;5.10;;;;;;;;;;5014308;28;20465;-79
2023/09/18 12:00:49;;;;;;;4.93;4.50;;;;;;;;;;5016846;28;20564;-79
2023/09/18 12:03:24;;;;;;;6.80;5.00;;;;;;;;;;4997424;28;20986;-79
2023/09/18 12:05:53;;;;;;;6.27;4.57;;;;;;;;;;5006823;28;20481;-80
2023/09/18 12:08:20;;;;;;;8.60;4.90;;;;;;;;;;4996625;28;20499;-79
2023/09/18 12:10:48;;;;;;;6.40;4.77;;;;;;;;;;5001756;28;20479;-78
2023/09/18 12:13:16;;;;;;;5.40;4.43;;;;;;;;;;5015465;28;20851;-78
2023/09/18 12:15:45;;;;;;;7.17;4.23;;;;;;;;;;5009640;28;20473;-78
2023/09/18 12:18:12;;;;;;;6.50;4.57;;;;;;;;;;5020206;28;20820;-81
2023/09/18 12:20:45;;;;;;;5.03;3.93;;;;;;;;;;5001671;28;20465;-79
2023/09/18 12:23:11;;;;;;;7.27;3.60;;;;;;;;;;5007627;28;20520;-78
2023/09/18 12:25:39;;;;;;;6.13;4.20;;;;;;;;;;5013300;28;20469;-80
2023/09/18 12:28:07;;;;;;;5.17;3.40;;;;;;;;;;5005491;28;22213;-79
2023/09/18 12:30:35;;;;;;;6.70;4.03;;;;;;;;;;5023160;28;20468;-80
2023/09/18 12:33:03;;;;;;;4.43;3.50;;;;;;;;;;5016122;28;20845;-80
2023/09/18 12:35:30;;;;;;;4.20;3.20;;;;;;;;;;5014395;28;20902;-80
2023/09/18 12:37:56;;;;;;;5.53;3.23;;;;;;;;;;5019536;28;20519;-80
2023/09/18 12:40:23;;;;;;;4.47;3.00;;;;;;;;;;5001623;28;21036;-79
2023/09/18 12:42:50;;;;;;;4.70;3.17;;;;;;;;;;5016636;28;20491;-80
2023/09/18 12:45:17;;;;;;;7.37;3.27;;;;;;;;;;5008704;28;20469;-81
2023/09/18 12:47:45;;;;;;;5.50;3.00;;;;;;;;;;5025283;28;20978;-79
2023/09/18 12:50:13;;;;;;;5.67;3.33;;;;;;;;;;5006201;28;20467;-78
2023/09/18 12:52:41;;;;;;;3.47;3.17;;;;;;;;;;5013084;28;20488;-80
2023/09/18 12:55:08;;;;;;;5.57;3.17;;;;;;;;;;5024314;28;20469;-79
2023/09/18 12:57:34;;;;;;;3.03;2.73;;;;;;;;;;5020061;28;20852;-79
2023/09/18 13:00:09;;;;;;;3.70;3.30;;;;;;;;;;5021635;28;20844;-80
2023/09/18 13:02:36;;;;;;;3.27;2.80;;;;;;;;;;5001950;28;20489;-79
2023/09/18 13:05:04;;;;;;;3.83;2.90;;;;;;;;;;5019571;28;20473;-79
2023/09/18 13:07:32;;;;;;;4.50;3.00;;;;;;;;;;5006764;28;20490;-80
2023/09/18 13:09:59;;;;;;;3.53;3.13;;;;;;;;;;5019218;28;20475;-78
2023/09/18 13:12:26;;;;;;;3.30;2.77;;;;;;;;;;5003163;28;20475;-80
2023/09/18 13:14:59;;;;;;;2.93;2.40;;;;;;;;;;5011171;28;20477;-78
2023/09/18 13:17:25;;;;;;;3.00;2.60;;;;;;;;;;5008450;28;20500;-80
2023/09/18 13:19:51;;;;;;;11.43;3.10;;;;;;;;;;5011925;28;20470;-79
2023/09/18 13:22:24;;;;;;;3.20;2.30;;;;;;;;;;5019764;28;20501;-79
2023/09/18 13:24:55;;;;;;;3.70;2.43;;;;;;;;;;5014238;28;20474;-80
2023/09/18 13:27:23;;;;;;;2.50;2.30;;;;;;;;;;5019987;28;20867;-79
2023/09/18 13:29:49;;;;;;;3.23;2.67;;;;;;;;;;5012948;28;20471;-80
2023/09/18 13:32:16;;;;;;;3.43;2.23;;;;;;;;;;5008067;28;20474;-78
2023/09/18 13:34:42;;;;;;;5.53;2.50;;;;;;;;;;4979060;28;21148;-79
2023/09/18 13:37:08;;;;;;;3.37;2.50;;;;;;;;;;5005442;28;20848;-78
2023/09/18 13:39:36;;;;;;;5.60;2.60;;;;;;;;;;5004280;28;21136;-79
2023/09/18 13:42:03;;;;;;;4.97;2.40;;;;;;;;;;5007875;28;20505;-80
2023/09/18 13:44:29;;;;;;;3.10;2.80;;;;;;;;;;5014244;28;20490;-79
2023/09/18 13:46:56;;;;;;;3.47;3.00;;;;;;;;;;4978526;28;20469;-78
2023/09/18 13:49:22;;;;;;;3.40;2.50;;;;;;;;;;5002848;28;20476;-80
2023/09/18 13:51:50;;;;;;;2.90;2.57;;;;;;;;;;5022069;28;20520;-78
2023/09/18 13:54:16;;;;;;;3.17;2.30;;;;;;;;;;4993925;28;20474;-80
2023/09/18 13:56:44;;;;;;;3.20;2.90;;;;;;;;;;5017682;28;20472;-80
2023/09/18 13:59:11;;;;;;;2.97;2.67;;;;;;;;;;5011094;28;20477;-78
2023/09/18 14:01:37;;;;;;;7.27;3.00;;;;;;;;;;5014431;28;20581;-78
2023/09/18 14:04:04;;;;;;;3.60;2.10;;;;;;;;;;5012756;28;20858;-80
2023/09/18 14:06:33;;;;;;;3.17;2.50;;;;;;;;;;5007285;28;20484;-78
2023/09/18 14:08:59;;;;;;;4.83;2.60;;;;;;;;;;5008632;28;20472;-79
2023/09/18 14:11:26;;;;;;;5.03;2.83;;;;;;;;;;5012506;28;20474;-79
2023/09/18 14:13:54;;;;;;;3.70;3.03;;;;;;;;;;5021021;28;20473;-79
2023/09/18 14:16:22;;;;;;;3.00;2.57;;;;;;;;;;5019677;28;20921;-81
2023/09/18 14:18:48;;;;;;;5.20;2.50;;;;;;;;;;5008493;28;20549;-79
2023/09/18 14:21:14;;;;;;;3.33;3.13;;;;;;;;;;4998991;28;20839;-79
2023/09/18 14:23:41;;;;;;;3.10;2.87;;;;;;;;;;5008703;28;20485;-77
2023/09/18 14:26:07;;;;;;;3.50;3.20;;;;;;;;;;5015308;28;20492;-79
2023/09/18 14:28:34;;;;;;;6.70;3.13;;;;;;;;;;5012668;28;20470;-78